Time;durP1;ratioP1;P1;durP2;ratioP2;P2;SDS_P1;SDS_P2;PMS_P1;PMS_P2;Temp;Humidity;BMP_temperature;BMP_pressure;BME280_temperature;BME280_humidity;BME280_pressure;Samples;Min_cycle;Max_cycle;Signal;HPM_P1;HPM_P2
2023/03/18 00:00:25;;;;;;;;;;;;;;;9.99;37.17;99306.50;5071890;28;20365;-79
2023/03/18 00:02:51;;;;;;;;;;;;;;;10.01;37.28;99316.81;5055046;28;19920;-78
2023/03/18 00:05:17;;;;;;;;;;;;;;;10.00;37.34;99309.97;5072929;28;20011;-78
2023/03/18 00:07:42;;;;;;;;;;;;;;;10.00;37.37;99305.56;5055596;28;19916;-79
2023/03/18 00:10:09;;;;;;;;;;;;;;;10.01;37.49;99302.03;5055183;28;19923;-79
2023/03/18 00:12:34;;;;;;;;;;;;;;;10.01;37.79;99303.78;5071908;28;19916;-78
2023/03/18 00:14:59;;;;;;;;;;;;;;;10.01;37.66;99303.78;5073428;28;20401;-79
2023/03/18 00:17:25;;;;;;;;;;;;;;;10.02;37.65;99297.66;5054138;28;19947;-78
2023/03/18 00:19:50;;;;;;;;;;;;;;;10.03;37.59;99296.72;5071499;28;19963;-79
2023/03/18 00:22:16;;;;;;;;;;;;;;;10.04;37.73;99290.53;5054988;28;20374;-80
2023/03/18 00:24:41;;;;;;;;;;;;;;;10.06;37.59;99288.69;5071764;28;19920;-82
2023/03/18 00:27:08;;;;;;;;;;;;;;;10.06;37.68;99279.09;5071744;28;19924;-81
2023/03/18 00:29:33;;;;;;;;;;;;;;;10.07;37.73;99285.97;5054844;28;19917;-82
2023/03/18 00:31:59;;;;;;;;;;;;;;;10.08;37.64;99284.19;5054852;28;19916;-81
2023/03/18 00:34:25;;;;;;;;;;;;;;;10.08;37.78;99279.00;5071667;28;20379;-82
2023/03/18 00:36:55;;;;;;;;;;;;;;;10.07;37.66;99270.34;5072960;28;19924;-83
2023/03/18 00:39:25;;;;;;;;;;;;;;;10.08;37.72;99263.34;5055733;28;20015;-82
2023/03/18 00:41:51;;;;;;;;;;;;;;;10.09;37.58;99265.00;5055378;28;19917;-83
2023/03/18 00:44:17;;;;;;;;;;;;;;;10.10;37.40;99264.06;5071782;28;20451;-82
2023/03/18 00:46:42;;;;;;;;;;;;;;;10.11;37.60;99257.91;5071377;28;20003;-84
2023/03/18 00:49:07;;;;;;;;;;;;;;;10.10;37.62;99254.47;5054787;28;19923;-82
2023/03/18 00:51:33;;;;;;;;;;;;;;;10.08;37.65;99255.50;5054767;28;19917;-82
2023/03/18 00:54:00;;;;;;;;;;;;;;;10.09;37.56;99251.97;5073311;28;20011;-82
2023/03/18 00:56:26;;;;;;;;;;;;;;;10.08;37.49;99258.13;5072177;28;19917;-81
2023/03/18 00:58:52;;;;;;;;;;;;;;;10.06;37.46;99260.00;5055130;28;19978;-81
2023/03/18 01:01:18;;;;;;;;;;;;;;;10.05;37.74;99258.31;5055090;28;20342;-80
2023/03/18 01:03:43;;;;;;;;;;;;;;;10.02;37.62;99253.31;5071385;28;19916;-81
2023/03/18 01:06:13;;;;;;;;;;;;;;;10.00;37.71;99248.19;5071132;28;19953;-82
2023/03/18 01:08:38;;;;;;;;;;;;;;;10.00;37.59;99249.97;5071364;28;20011;-84
2023/03/18 01:11:04;;;;;;;;;;;;;;;9.94;37.81;99252.03;5071314;28;19948;-82
2023/03/18 01:13:29;;;;;;;;;;;;;;;9.92;37.58;99242.63;5071142;28;19921;-82
2023/03/18 01:15:55;;;;;;;;;;;;;;;9.89;37.77;99248.88;5072489;28;19974;-80
2023/03/18 01:18:20;;;;;;;;;;;;;;;9.89;37.58;99254.09;5071907;28;19916;-82
2023/03/18 01:20:46;;;;;;;;;;;;;;;9.86;37.95;99246.47;5085254;28;19926;-83
2023/03/18 01:23:12;;;;;;;;;;;;;;;9.85;37.84;99249.19;5074273;28;19924;-85
2023/03/18 01:25:37;;;;;;;;;;;;;;;9.83;37.70;99243.25;5074446;28;19922;-83
2023/03/18 01:28:02;;;;;;;;;;;;;;;9.82;37.82;99238.94;5092697;28;19916;-83
2023/03/18 01:30:28;;;;;;;;;;;;;;;9.78;38.05;99238.31;5094684;28;20369;-83
2023/03/18 01:32:54;;;;;;;;;;;;;;;9.76;37.76;99242.81;5078220;28;19922;-83
2023/03/18 01:35:19;;;;;;;;;;;;;;;9.73;37.79;99243.84;5095530;28;19969;-83
2023/03/18 01:37:45;;;;;;;;;;;;;;;9.70;38.04;99240.59;5095421;28;19916;-83
2023/03/18 01:40:12;;;;;;;;;;;;;;;9.68;38.14;99239.88;5078406;28;19988;-83
2023/03/18 01:42:37;;;;;;;;;;;;;;;9.66;38.18;99242.56;5094836;28;20363;-80
2023/03/18 01:45:20;;;;;;;;;;;;;;;9.64;38.32;99248.81;5094903;28;19916;-79
2023/03/18 01:47:45;;;;;;;;;;;;;;;9.59;38.04;99252.53;5095086;28;19916;-79
2023/03/18 01:50:15;;;;;;;;;;;;;;;9.58;38.33;99244.81;5077791;28;19920;-80
2023/03/18 01:52:42;;;;;;;;;;;;;;;9.57;38.35;99249.19;5077583;28;20062;-80
2023/03/18 01:55:09;;;;;;;;;;;;;;;9.56;38.09;99246.69;5094780;28;19923;-80
2023/03/18 01:57:34;;;;;;;;;;;;;;;9.53;38.12;99247.72;5094701;28;20416;-80
2023/03/18 02:00:00;;;;;;;;;;;;;;;9.53;38.35;99246.88;5094453;28;19916;-81
2023/03/18 02:02:26;;;;;;;;;;;;;;;9.51;38.34;99249.59;5094422;28;19916;-81
2023/03/18 02:04:53;;;;;;;;;;;;;;;9.49;38.34;99245.38;5094702;28;20446;-81
2023/03/18 02:07:29;;;;;;;;;;;;;;;9.47;38.46;99245.53;5094593;28;19916;-81
2023/03/18 02:09:55;;;;;;;;;;;;;;;9.46;38.38;99243.00;5094363;28;20339;-82
2023/03/18 02:12:22;;;;;;;;;;;;;;;9.46;38.34;99238.63;5077313;28;20386;-82
2023/03/18 02:14:47;;;;;;;;;;;;;;;9.43;38.33;99238.81;5077554;28;20310;-80
2023/03/18 02:17:14;;;;;;;;;;;;;;;9.39;38.52;99240.78;5094493;28;19916;-82
2023/03/18 02:19:58;;;;;;;;;;;;;;;9.38;38.48;99239.09;5094239;28;19930;-81
2023/03/18 02:22:30;;;;;;;;;;;;;;;9.36;38.69;99242.72;5094117;28;19924;-81
2023/03/18 02:25:10;;;;;;;;;;;;;;;9.36;38.32;99240.13;5095406;28;20018;-80
2023/03/18 02:27:36;;;;;;;;;;;;;;;9.34;38.68;99247.22;5095653;28;19916;-79
2023/03/18 02:30:04;;;;;;;;;;;;;;;9.31;38.61;99242.19;5077436;28;19927;-81
2023/03/18 02:32:29;;;;;;;;;;;;;;;9.31;38.57;99247.41;5076951;28;19966;-79
2023/03/18 02:34:55;;;;;;;;;;;;;;;9.28;38.50;99238.00;5077112;28;19956;-80
2023/03/18 02:37:20;;;;;;;;;;;;;;;9.25;38.67;99238.22;5076928;28;19921;-79
2023/03/18 02:39:45;;;;;;;;;;;;;;;9.20;38.65;99248.94;5094525;28;19916;-79
2023/03/18 02:42:12;;;;;;;;;;;;;;;9.18;38.86;99248.16;5095192;28;20011;-80
2023/03/18 02:44:40;;;;;;;;;;;;;;;9.16;38.88;99252.66;5076998;28;19923;-81
2023/03/18 02:47:08;;;;;;;;;;;;;;;9.13;38.87;99245.03;5093470;28;20302;-81
2023/03/18 02:49:33;;;;;;;;;;;;;;;9.13;38.77;99244.19;5076824;28;19959;-78
2023/03/18 02:51:58;;;;;;;;;;;;;;;9.12;38.85;99245.13;5093941;28;20354;-78
2023/03/18 02:54:25;;;;;;;;;;;;;;;9.09;39.11;99246.13;5093734;28;19916;-80
2023/03/18 02:56:50;;;;;;;;;;;;;;;9.06;38.86;99248.91;5093787;28;19916;-81
2023/03/18 02:59:16;;;;;;;;;;;;;;;9.02;39.31;99250.06;5093510;28;19968;-81
2023/03/18 03:01:42;;;;;;;;;;;;;;;9.03;39.02;99252.56;5093206;28;19920;-82
2023/03/18 03:04:07;;;;;;;;;;;;;;;9.01;39.00;99250.97;5093581;28;19916;-81
2023/03/18 03:06:33;;;;;;;;;;;;;;;8.99;39.16;99250.25;5093437;28;19946;-78
2023/03/18 03:08:59;;;;;;;;;;;;;;;8.96;38.99;99247.84;5076109;28;19939;-80
2023/03/18 03:11:25;;;;;;;;;;;;;;;8.94;39.08;99245.31;5076829;28;20006;-82
2023/03/18 03:13:50;;;;;;;;;;;;;;;8.93;39.47;99245.41;5093504;28;20435;-82
2023/03/18 03:16:15;;;;;;;;;;;;;;;8.92;39.39;99248.94;5093130;28;20439;-81
2023/03/18 03:18:41;;;;;;;;;;;;;;;8.89;39.28;99236.97;5094333;28;20341;-80
2023/03/18 03:21:07;;;;;;;;;;;;;;;8.92;39.25;99246.34;5075833;28;19955;-80
2023/03/18 03:23:33;;;;;;;;;;;;;;;8.92;39.23;99244.59;5093251;28;19924;-80
2023/03/18 03:25:58;;;;;;;;;;;;;;;8.91;39.21;99249.88;5093148;28;19916;-80
2023/03/18 03:28:23;;;;;;;;;;;;;;;8.89;39.07;99249.97;5076112;28;19916;-80
2023/03/18 03:30:49;;;;;;;;;;;;;;;8.88;39.04;99249.13;5092485;28;19939;-81
2023/03/18 03:33:14;;;;;;;;;;;;;;;8.88;38.87;99251.72;5094003;28;20010;-81
2023/03/18 03:35:40;;;;;;;;;;;;;;;8.88;38.84;99256.94;5093432;28;19916;-81
2023/03/18 03:38:05;;;;;;;;;;;;;;;8.88;38.79;99254.31;5093394;28;19920;-81
2023/03/18 03:40:31;;;;;;;;;;;;;;;8.88;38.83;99258.72;5092935;28;19927;-80
2023/03/18 03:42:56;;;;;;;;;;;;;;;8.87;38.87;99257.03;5092836;28;19916;-80
2023/03/18 03:45:21;;;;;;;;;;;;;;;8.88;38.72;99251.72;5093998;28;19927;-80
2023/03/18 03:47:47;;;;;;;;;;;;;;;8.88;38.85;99259.53;5092559;28;19916;-79
2023/03/18 03:50:12;;;;;;;;;;;;;;;8.93;38.75;99255.81;5092623;28;19980;-81
2023/03/18 03:52:38;;;;;;;;;;;;;;;8.91;39.09;99261.13;5096297;28;19916;-81
2023/03/18 03:55:04;;;;;;;;;;;;;;;8.88;38.73;99256.94;5075887;28;19916;-81
2023/03/18 03:57:29;;;;;;;;;;;;;;;8.91;39.10;99255.91;5079501;28;19916;-80
2023/03/18 03:59:55;;;;;;;;;;;;;;;8.88;38.68;99256.94;5102352;28;19916;-81
2023/03/18 04:02:22;;;;;;;;;;;;;;;8.88;38.91;99253.50;5096915;28;19962;-82
2023/03/18 04:04:47;;;;;;;;;;;;;;;8.86;38.95;99257.97;5092384;28;20272;-82
2023/03/18 04:07:13;;;;;;;;;;;;;;;8.86;38.95;99257.97;5076554;28;19923;-81
2023/03/18 04:09:40;;;;;;;;;;;;;;;8.82;38.63;99259.94;5093581;28;19916;-82
2023/03/18 04:12:05;;;;;;;;;;;;;;;8.79;38.72;99260.13;5092517;28;19969;-81
2023/03/18 04:14:30;;;;;;;;;;;;;;;8.77;38.72;99261.13;5075452;28;19920;-81
2023/03/18 04:16:57;;;;;;;;;;;;;;;8.76;38.66;99260.31;5092474;28;20295;-81
2023/03/18 04:19:22;;;;;;;;;;;;;;;8.76;38.70;99262.91;5075289;28;19927;-81
2023/03/18 04:21:48;;;;;;;;;;;;;;;8.73;38.71;99260.50;5075287;28;20022;-81
2023/03/18 04:24:14;;;;;;;;;;;;;;;8.72;38.84;99252.78;5092183;28;19923;-82
2023/03/18 04:26:39;;;;;;;;;;;;;;;8.71;39.06;99257.13;5093664;28;19916;-81
2023/03/18 04:29:04;;;;;;;;;;;;;;;8.72;38.93;99252.78;5093114;28;19967;-82
2023/03/18 04:31:30;;;;;;;;;;;;;;;8.71;38.52;99258.91;5093238;28;20015;-81
2023/03/18 04:33:56;;;;;;;;;;;;;;;8.80;38.41;99253.13;5093755;28;19967;-81
2023/03/18 04:36:22;;;;;;;;;;;;;;;9.07;37.90;99258.41;5074942;28;19927;-79
2023/03/18 04:38:47;;;;;;;;;;;;;;;9.55;37.36;99253.69;5092579;28;19916;-79
2023/03/18 04:41:12;;;;;;;;;;;;;;;10.09;36.33;99252.81;5091903;28;19964;-80
2023/03/18 04:43:38;;;;;;;;;;;;;;;10.62;35.56;99250.16;5092566;28;19916;-79
2023/03/18 04:46:03;;;;;;;;;;;;;;;11.17;34.59;99255.13;5093087;28;20398;-80
2023/03/18 04:48:29;;;;;;;;;;;;;;;11.80;33.63;99254.97;5091930;28;19916;-79
2023/03/18 04:50:54;;;;;;;;;;;;;;;12.39;32.52;99249.75;5074446;28;19920;-81
2023/03/18 04:53:20;;;;;;;;;;;;;;;12.98;31.84;99248.72;5091694;28;19916;-80
2023/03/18 04:55:45;;;;;;;;;;;;;;;13.56;30.36;99251.16;5092959;28;20448;-81
2023/03/18 04:58:11;;;;;;;;;;;;;;;14.10;29.66;99251.19;5092492;28;19916;-79
2023/03/18 05:00:36;;;;;;;;;;;;;;;14.72;28.46;99252.16;5092988;28;19916;-81
2023/03/18 05:03:02;;;;;;;;;;;;;;;15.24;27.64;99252.06;5076370;28;19945;-82
2023/03/18 05:05:27;;;;;;;;;;;;;;;15.81;26.63;99247.06;5097497;28;19939;-81
2023/03/18 05:07:53;;;;;;;;;;;;;;;16.33;25.88;99244.13;5095930;28;19916;-82
2023/03/18 05:10:18;;;;;;;;;;;;;;;16.92;25.20;99242.19;5097472;28;19917;-82
2023/03/18 05:12:43;;;;;;;;;;;;;;;17.39;24.85;99246.50;5096865;28;20060;-82
2023/03/18 05:15:10;;;;;;;;;;;;;;;17.82;24.05;99246.75;5095642;28;19916;-81
2023/03/18 05:17:35;;;;;;;;;;;;;;;18.39;23.32;99246.41;5078533;28;20464;-81
2023/03/18 05:20:00;;;;;;;;;;;;;;;18.87;22.80;99238.97;5095075;28;19999;-80
2023/03/18 05:22:26;;;;;;;;;;;;;;;19.23;22.37;99246.69;5096823;28;19921;-80
2023/03/18 05:24:52;;;;;;;;;;;;;;;19.60;21.84;99241.00;5072409;28;19931;-80
2023/03/18 05:27:17;;;;;;;;;;;;;;;19.94;21.53;99255.16;5054182;28;19923;-81
2023/03/18 05:29:43;;;;;;;;;;;;;;;20.27;21.08;99255.16;5054918;28;20372;-81
2023/03/18 05:32:08;;;;;;;;;;;;;;;20.59;20.68;99255.13;5054702;28;19917;-81
2023/03/18 05:34:36;;;;;;;;;;;;;;;20.98;20.44;99255.38;5054946;28;20402;-82
2023/03/18 05:37:01;;;;;;;;;;;;;;;21.33;20.22;99248.72;5066689;28;19925;-78
2023/03/18 05:39:27;;;;;;;;;;;;;;;21.58;20.08;99245.97;5096300;28;19923;-79
2023/03/18 05:41:52;;;;;;;;;;;;;;;21.85;19.75;99245.47;5094806;28;19940;-81
2023/03/18 05:44:18;;;;;;;;;;;;;;;22.12;19.28;99245.88;5095088;28;19916;-81
2023/03/18 05:46:43;;;;;;;;;;;;;;;22.40;18.87;99248.00;5096247;28;20314;-81
2023/03/18 05:49:09;;;;;;;;;;;;;;;22.66;18.76;99260.91;5094615;28;19916;-80
2023/03/18 05:51:34;;;;;;;;;;;;;;;22.87;18.59;99254.03;5095002;28;19916;-81
2023/03/18 05:53:59;;;;;;;;;;;;;;;23.11;18.25;99258.25;5094780;28;19916;-84
2023/03/18 05:56:25;;;;;;;;;;;;;;;23.43;18.04;99266.81;5095365;28;20435;-79
2023/03/18 05:58:50;;;;;;;;;;;;;;;23.66;21.16;99267.47;5100390;28;19923;-73
2023/03/18 06:01:16;;;;;;;;;;;;;;;23.90;21.74;99265.50;5095437;28;19923;-76
2023/03/18 06:03:41;;;;;;;;;;;;;;;24.18;22.05;99264.72;5077508;28;19955;-79
2023/03/18 06:06:07;;;;;;;;;;;;;;;24.49;20.68;99263.50;5094725;28;19962;-79
2023/03/18 06:08:33;;;;;;;;;;;;;;;24.80;21.10;99263.13;5095137;28;19916;-79
2023/03/18 06:10:58;;;;;;;;;;;;;;;25.13;22.58;99259.81;5077790;28;19916;-79
2023/03/18 06:13:23;;;;;;;;;;;;;;;24.75;21.20;99268.25;5095826;28;20279;-83
2023/03/18 06:15:54;;;;;;;;;;;;;;;23.95;24.13;99271.06;5093465;28;20315;-83
2023/03/18 06:18:19;;;;;;;;;;;;;;;23.25;23.79;99276.03;5095212;28;19989;-80
2023/03/18 06:20:45;;;;;;;;;;;;;;;22.54;23.54;99281.78;5077676;28;20375;-85
2023/03/18 06:23:11;;;;;;;;;;;;;;;21.92;29.24;99282.78;5095468;28;19920;-80
2023/03/18 06:25:37;;;;;;;;;;;;;;;21.40;31.70;99281.56;5094815;28;19916;-80
2023/03/18 06:28:02;;;;;;;;;;;;;;;20.80;29.84;99282.13;5095878;28;19920;-82
2023/03/18 06:30:28;;;;;;;;;;;;;;;20.11;28.05;99282.50;5077835;28;19920;-82
2023/03/18 06:32:53;;;;;;;;;;;;;;;19.60;27.09;99282.56;5095021;28;20070;-81
2023/03/18 06:35:18;;;;;;;;;;;;;;;18.96;26.27;99280.31;5095478;28;20387;-80
2023/03/18 06:37:44;;;;;;;;;;;;;;;18.60;32.54;99289.19;5094081;28;19922;-79
2023/03/18 06:40:11;;;;;;;;;;;;;;;18.18;28.73;99295.16;5095271;28;19916;-80
2023/03/18 06:42:36;;;;;;;;;;;;;;;17.71;28.09;99288.25;5077593;28;20441;-79
2023/03/18 06:45:01;;;;;;;;;;;;;;;17.33;27.79;99289.31;5096973;28;19924;-80
2023/03/18 06:47:27;;;;;;;;;;;;;;;17.00;27.46;99283.66;5078758;28;19916;-85
2023/03/18 06:49:54;;;;;;;;;;;;;;;16.69;27.51;99281.22;5097750;28;19927;-77
2023/03/18 06:52:20;;;;;;;;;;;;;;;16.52;29.86;99290.66;5096828;28;19916;-87
2023/03/18 06:54:45;;;;;;;;;;;;;;;16.29;29.38;99295.44;5097653;28;19921;-84
2023/03/18 06:57:10;;;;;;;;;;;;;;;16.08;29.08;99295.56;5091075;28;19922;-84
2023/03/18 06:59:41;;;;;;;;;;;;;;;15.87;28.70;99299.16;5094013;28;19951;-84
2023/03/18 07:02:07;;;;;;;;;;;;;;;15.68;28.68;99302.56;5096681;28;19920;-85
2023/03/18 07:04:32;;;;;;;;;;;;;;;15.54;28.47;99301.19;5078465;28;19920;-85
2023/03/18 07:06:59;;;;;;;;;;;;;;;15.36;28.43;99298.34;5095744;28;19916;-81
2023/03/18 07:09:25;;;;;;;;;;;;;;;15.27;28.38;99293.06;5078905;28;19916;-82
2023/03/18 07:11:50;;;;;;;;;;;;;;;15.12;28.41;99293.41;5094846;28;19916;-83
2023/03/18 07:14:17;;;;;;;;;;;;;;;15.03;28.25;99291.59;5092729;28;19924;-83
2023/03/18 07:16:42;;;;;;;;;;;;;;;14.94;28.01;99292.38;5076508;28;20011;-83
2023/03/18 07:19:08;;;;;;;;;;;;;;;14.90;28.03;99290.97;5093741;28;19963;-82
2023/03/18 07:21:34;;;;;;;;;;;;;;;14.83;28.12;99299.38;5093131;28;19931;-83
2023/03/18 07:24:00;;;;;;;;;;;;;;;14.81;27.93;99303.91;5076380;28;19916;-82
2023/03/18 07:26:25;;;;;;;;;;;;;;;14.77;28.04;99314.81;5092904;28;20426;-82
2023/03/18 07:28:50;;;;;;;;;;;;;;;14.72;27.95;99320.50;5093078;28;20016;-81
2023/03/18 07:31:16;;;;;;;;;;;;;;;14.67;27.91;99316.56;5094290;28;19916;-83
2023/03/18 07:33:41;;;;;;;;;;;;;;;14.61;27.78;99316.13;5076586;28;19920;-83
2023/03/18 07:36:07;;;;;;;;;;;;;;;14.55;28.05;99314.00;5094818;28;20446;-84
2023/03/18 07:38:32;;;;;;;;;;;;;;;14.49;28.25;99317.13;5076167;28;20018;-83
2023/03/18 07:40:58;;;;;;;;;;;;;;;14.40;28.46;99320.50;5093266;28;19916;-83
2023/03/18 07:43:23;;;;;;;;;;;;;;;14.35;28.75;99315.63;5076628;28;19916;-84
2023/03/18 07:45:48;;;;;;;;;;;;;;;14.33;28.80;99321.97;5076381;28;20007;-84
2023/03/18 07:48:14;;;;;;;;;;;;;;;14.25;28.99;99320.00;5076638;28;19917;-87
2023/03/18 07:50:40;;;;;;;;;;;;;;;14.19;29.21;99323.13;5079399;28;19923;-84
2023/03/18 07:53:05;;;;;;;;;;;;;;;14.16;29.02;99326.00;5093031;28;20391;-84
2023/03/18 07:55:30;;;;;;;;;;;;;;;14.16;29.20;99326.00;5092913;28;20024;-83
2023/03/18 07:57:56;;;;;;;;;;;;;;;14.10;29.43;99332.56;5097306;28;19916;-91
2023/03/18 08:00:21;;;;;;;;;;;;;;;14.08;29.88;99329.25;5077892;28;20367;-86
2023/03/18 08:02:47;;;;;;;;;;;;;;;14.05;29.85;99330.31;5077889;28;20315;-85
2023/03/18 08:05:13;;;;;;;;;;;;;;;14.04;29.78;99326.03;5077496;28;20452;-87
2023/03/18 08:07:38;;;;;;;;;;;;;;;14.03;29.70;99323.53;5076704;28;19922;-86
2023/03/18 08:10:04;;;;;;;;;;;;;;;14.01;29.62;99328.06;5075638;28;19916;-85
2023/03/18 08:12:29;;;;;;;;;;;;;;;13.99;29.67;99325.56;5093620;28;19920;-87
2023/03/18 08:14:55;;;;;;;;;;;;;;;13.96;29.87;99331.06;5076380;28;19916;-85
2023/03/18 08:17:20;;;;;;;;;;;;;;;13.94;29.68;99338.22;5075589;28;20360;-84
2023/03/18 08:19:47;;;;;;;;;;;;;;;13.92;29.65;99340.97;5093151;28;20426;-84
2023/03/18 08:22:13;;;;;;;;;;;;;;;13.96;29.56;99335.47;5075936;28;19916;-85
2023/03/18 08:24:38;;;;;;;;;;;;;;;13.97;29.67;99338.00;5092259;28;20061;-84
2023/03/18 08:27:04;;;;;;;;;;;;;;;13.94;29.67;99336.44;5094778;28;19916;-85
2023/03/18 08:29:29;;;;;;;;;;;;;;;13.96;29.64;99336.31;5079811;28;19923;-86
2023/03/18 08:31:55;;;;;;;;;;;;;;;13.97;29.59;99339.78;5103089;28;19916;-85
2023/03/18 08:34:22;;;;;;;;;;;;;;;13.96;29.76;99346.81;5080808;28;19920;-88
2023/03/18 08:36:47;;;;;;;;;;;;;;;13.92;29.57;99343.59;5075426;28;19916;-82
2023/03/18 08:39:13;;;;;;;;;;;;;;;13.94;29.33;99340.84;5075263;28;20000;-82
2023/03/18 08:41:39;;;;;;;;;;;;;;;13.93;30.30;99337.41;5076105;28;20433;-79
2023/03/18 08:44:06;;;;;;;;;;;;;;;14.27;47.12;99345.16;5092480;28;20268;-80
2023/03/18 08:46:32;;;;;;;;;;;;;;;14.40;42.82;99344.97;5092263;28;19920;-81
2023/03/18 08:48:58;;;;;;;;;;;;;;;14.45;40.54;99345.44;5075213;28;19923;-82
2023/03/18 08:51:24;;;;;;;;;;;;;;;14.75;45.75;99343.84;5093040;28;19923;-81
2023/03/18 08:53:49;;;;;;;;;;;;;;;14.87;43.25;99349.06;5074924;28;20379;-79
2023/03/18 08:56:15;;;;;;;;;;;;;;;15.18;43.99;99344.63;5074850;28;19923;-81
2023/03/18 08:58:42;;;;;;;;;;;;;;;15.44;42.08;99352.91;5091771;28;20306;-78
2023/03/18 09:01:07;;;;;;;;;;;;;;;15.64;41.67;99351.19;5092908;28;19916;-77
2023/03/18 09:03:34;;;;;;;;;;;;;;;15.77;40.72;99356.25;5092005;28;19916;-85
2023/03/18 09:05:59;;;;;;;;;;;;;;;15.85;40.51;99343.22;5075224;28;19969;-80
2023/03/18 09:08:25;;;;;;;;;;;;;;;15.86;40.28;99349.31;5074319;28;19920;-87
2023/03/18 09:10:52;;;;;;;;;;;;;;;15.98;40.50;99347.41;5074539;28;19917;-79
2023/03/18 09:13:18;;;;;;;;;;;;;;;16.09;40.12;99353.38;5091774;28;19959;-82
2023/03/18 09:15:43;;;;;;;;;;;;;;;16.16;39.83;99348.41;5075014;28;19959;-76
2023/03/18 09:18:08;;;;;;;;;;;;;;;16.25;39.29;99349.38;5074544;28;20014;-76
2023/03/18 09:20:34;;;;;;;;;;;;;;;16.32;38.70;99349.63;5090750;28;19924;-75
2023/03/18 09:22:59;;;;;;;;;;;;;;;16.35;38.18;99347.56;5091494;28;19965;-75
2023/03/18 09:25:25;;;;;;;;;;;;;;;16.38;37.80;99341.16;5074303;28;19923;-76
2023/03/18 09:27:51;;;;;;;;;;;;;;;16.38;37.82;99349.94;5075045;28;20007;-78
2023/03/18 09:30:16;;;;;;;;;;;;;;;16.37;38.57;99348.25;5092711;28;19976;-77
2023/03/18 09:32:42;;;;;;;;;;;;;;;16.39;39.84;99351.56;5092616;28;19920;-77
2023/03/18 09:35:08;;;;;;;;;;;;;;;16.51;39.54;99347.00;5091360;28;19948;-78
2023/03/18 09:37:33;;;;;;;;;;;;;;;16.62;39.36;99351.31;5091405;28;19916;-78
2023/03/18 09:39:59;;;;;;;;;;;;;;;16.73;38.97;99351.13;5091178;28;19916;-79
2023/03/18 09:42:27;;;;;;;;;;;;;;;16.79;38.82;99347.94;5074279;28;19917;-78
2023/03/18 09:44:54;;;;;;;;;;;;;;;16.89;38.68;99353.22;5092404;28;19917;-74
2023/03/18 09:47:38;;;;;;;;;;;;;;;16.90;38.27;99354.84;5074215;28;19916;-76
2023/03/18 09:50:04;;;;;;;;;;;;;;;16.87;35.83;99349.88;5094059;28;19923;-78
2023/03/18 09:52:29;;;;;;;;;;;;;;;16.74;32.77;99351.97;5094492;28;19916;-77
2023/03/18 09:55:10;;;;;;;;;;;;;;;16.52;32.24;99346.00;5094735;28;20302;-77
2023/03/18 09:57:36;;;;;;;;;;;;;;;16.39;30.54;99346.31;5094769;28;20283;-76
2023/03/18 10:00:07;;;;;;;;;;;;;;;16.40;33.43;99347.16;5094787;28;19920;-77
2023/03/18 10:02:38;;;;;;;;;;;;;;;16.41;31.26;99344.38;5078104;28;19916;-81
2023/03/18 10:05:05;;;;;;;;;;;;;;;16.33;30.40;99341.59;5095707;28;19916;-77
2023/03/18 10:07:40;;;;;;;;;;;;;;;16.27;29.96;99340.34;5095175;28;19916;-78
2023/03/18 10:10:08;;;;;;;;;;;;;;;16.30;29.16;99339.22;5094770;28;20276;-76
2023/03/18 10:12:34;;;;;;;;;;;;;;;16.33;28.62;99336.31;5094253;28;19923;-75
2023/03/18 10:15:09;;;;;;;;;;;;;;;16.37;28.23;99335.09;5095833;28;19916;-76
2023/03/18 10:17:50;;;;;;;;;;;;;;;16.37;28.18;99337.72;5094280;28;19923;-77
2023/03/18 10:20:39;;;;;;;;;;;;;;;16.37;27.51;99324.53;5094233;28;19924;-76
2023/03/18 10:23:12;;;;;;;;;;;;;;;16.38;27.58;99318.31;5033443;28;19917;-76
2023/03/18 10:25:38;;;;;;;;;;;;;;;16.43;27.55;99328.41;5016970;28;20019;-76
2023/03/18 10:28:03;;;;;;;;;;;;;;;16.47;26.96;99327.16;5000020;28;19917;-76
2023/03/18 10:30:48;;;;;;;;;;;;;;;16.50;26.87;99315.53;5016459;28;19967;-76
2023/03/18 10:33:19;;;;;;;;;;;;;;;16.60;26.48;99313.69;5032833;28;19924;-76
2023/03/18 10:35:47;;;;;;;;;;;;;;;16.69;26.39;99310.19;5033064;28;20004;-76
2023/03/18 10:38:25;;;;;;;;;;;;;;;16.79;26.20;99318.94;4999996;28;20428;-77
2023/03/18 10:40:51;;;;;;;;;;;;;;;16.96;25.46;99314.72;4999892;28;20312;-78
2023/03/18 10:43:29;;;;;;;;;;;;;;;17.07;25.25;99308.44;5000060;28;19917;-78
2023/03/18 10:46:01;;;;;;;;;;;;;;;17.26;24.86;99307.53;5016293;28;19925;-76
2023/03/18 10:48:34;;;;;;;;;;;;;;;17.45;24.83;99297.88;5032775;28;19917;-76
2023/03/18 10:51:02;;;;;;;;;;;;;;;17.60;24.17;99303.47;4999814;28;20363;-76
2023/03/18 10:53:28;;;;;;;;;;;;;;;17.66;24.56;99295.81;5032915;28;20078;-77
2023/03/18 10:55:57;;;;;;;;;;;;;;;17.79;23.93;99291.94;4999888;28;19979;-77
2023/03/18 10:58:23;;;;;;;;;;;;;;;17.83;24.28;99295.97;4999656;28;19924;-78
2023/03/18 11:00:50;;;;;;;;;;;;;;;17.88;23.55;99285.81;5077535;28;19916;-77
2023/03/18 11:03:34;;;;;;;;;;;;;;;17.92;23.49;99292.47;5076652;28;19962;-81
2023/03/18 11:06:00;;;;;;;;;;;;;;;17.95;23.33;99286.88;5093901;28;19915;-76
2023/03/18 11:08:35;;;;;;;;;;;;;;;17.99;23.25;99282.94;5076477;28;19916;-77
2023/03/18 11:11:03;;;;;;;;;;;;;;;18.03;22.96;99280.84;5093155;28;19916;-78
2023/03/18 11:13:28;;;;;;;;;;;;;;;18.08;23.13;99287.31;5093308;28;19916;-76
2023/03/18 11:15:55;;;;;;;;;;;;;;;18.10;22.64;99281.88;5076247;28;20349;-78
2023/03/18 11:18:21;;;;;;;;;;;;;;;18.14;22.60;99277.09;5076876;28;20318;-76
2023/03/18 11:20:48;;;;;;;;;;;;;;;18.24;22.31;99276.03;5076003;28;20295;-77
2023/03/18 11:23:19;;;;;;;;;;;;;;;18.25;22.63;99267.16;5093266;28;19923;-77
2023/03/18 11:25:45;;;;;;;;;;;;;;;18.17;22.67;99272.38;5094221;28;20375;-76
2023/03/18 11:28:18;;;;;;;;;;;;;;;18.18;22.83;99268.72;5076039;28;19916;-78
2023/03/18 11:30:44;;;;;;;;;;;;;;;18.08;23.07;99265.34;5093089;28;19916;-80
2023/03/18 11:33:10;;;;;;;;;;;;;;;18.05;22.76;99263.00;5075940;28;19916;-77
2023/03/18 11:35:36;;;;;;;;;;;;;;;17.95;22.72;99256.97;5092879;28;20337;-77
2023/03/18 11:38:03;;;;;;;;;;;;;;;17.89;22.70;99248.69;5094114;28;20493;-78
2023/03/18 11:40:30;;;;;;;;;;;;;;;17.86;23.43;99248.94;5092701;28;19917;-78
2023/03/18 11:42:57;;;;;;;;;;;;;;;17.81;23.59;99247.75;5092723;28;19923;-77
2023/03/18 11:45:42;;;;;;;;;;;;;;;17.75;23.68;99240.44;5092794;28;19931;-77
2023/03/18 11:48:10;;;;;;;;;;;;;;;17.69;23.79;99241.84;5093684;28;19916;-77
2023/03/18 11:50:43;;;;;;;;;;;;;;;17.63;24.21;99231.91;5075868;28;20276;-78
2023/03/18 11:53:12;;;;;;;;;;;;;;;17.56;23.94;99229.03;5092568;28;19920;-76
2023/03/18 11:55:43;;;;;;;;;;;;;;;17.50;24.37;99219.06;5092166;28;19923;-76
2023/03/18 11:58:19;;;;;;;;;;;;;;;17.43;24.22;99225.94;5094106;28;20385;-78
2023/03/18 12:01:10;;;;;;;;;;;;;;;17.37;24.82;99222.06;5092376;28;19916;-76
2023/03/18 12:03:35;;;;;;;;;;;;;;;17.25;24.31;99221.47;5088186;28;19963;-78
2023/03/18 12:06:23;;;;;;;;;;;;;;;17.22;24.41;99213.00;5089673;28;20017;-77
2023/03/18 12:09:07;;;;;;;;;;;;;;;17.17;24.35;99211.66;5072045;28;19974;-77
2023/03/18 12:11:45;;;;;;;;;;;;;;;17.14;24.36;99211.94;5073149;28;19921;-78
2023/03/18 12:14:14;;;;;;;;;;;;;;;17.07;24.50;99213.50;5073020;28;19924;-78
2023/03/18 12:16:57;;;;;;;;;;;;;;;16.99;24.48;99210.78;5073219;28;20032;-78
2023/03/18 12:19:42;;;;;;;;;;;;;;;16.88;24.41;99201.25;5054944;28;19917;-78
2023/03/18 12:22:16;;;;;;;;;;;;;;;16.82;24.49;99196.53;5073024;28;20437;-77
2023/03/18 12:24:41;;;;;;;;;;;;;;;16.77;24.19;99191.69;5072677;28;20272;-77
2023/03/18 12:27:13;;;;;;;;;;;;;;;16.74;24.44;99186.69;5071623;28;19923;-80
2023/03/18 12:29:57;;;;;;;;;;;;;;;16.73;24.02;99189.47;5073165;28;19920;-77
2023/03/18 12:32:42;;;;;;;;;;;;;;;16.66;24.18;99201.59;5071559;28;20284;-77
2023/03/18 12:35:08;;;;;;;;;;;;;;;16.63;23.94;99192.16;5072726;28;20403;-79
2023/03/18 12:37:52;;;;;;;;;;;;;;;16.60;24.05;99197.72;5072854;28;20018;-77
2023/03/18 12:40:33;;;;;;;;;;;;;;;16.55;23.76;99198.16;5072876;28;19920;-77
2023/03/18 12:42:58;;;;;;;;;;;;;;;16.51;23.96;99202.06;5054889;28;20379;-78
2023/03/18 12:45:29;;;;;;;;;;;;;;;16.46;23.95;99181.41;5071476;28;19916;-79
2023/03/18 12:48:25;;;;;;;;;;;;;;;16.42;23.67;99185.31;5071812;28;19916;-78
2023/03/18 12:50:52;;;;;;;;;;;;;;;16.41;23.87;99188.94;4994472;28;19924;-75